sensor_id;sensor_type;location;lat;lon;timestamp;temperature;humidity
7163;DHT22;3623;47.098;15.446;2023-03-13T00:01:23;2.70;99.90
7163;DHT22;3623;47.098;15.446;2023-03-13T00:03:51;2.50;99.90
7163;DHT22;3623;47.098;15.446;2023-03-13T00:06:22;2.50;99.90
7163;DHT22;3623;47.098;15.446;2023-03-13T00:08:50;2.50;99.90
7163;DHT22;3623;47.098;15.446;2023-03-13T00:11:17;2.40;99.90
7163;DHT22;3623;47.098;15.446;2023-03-13T00:13:44;2.50;99.90
7163;DHT22;3623;47.098;15.446;2023-03-13T00:16:14;2.80;99.90
7163;DHT22;3623;47.098;15.446;2023-03-13T00:18:44;2.40;99.90
7163;DHT22;3623;47.098;15.446;2023-03-13T00:21:12;2.40;99.90
7163;DHT22;3623;47.098;15.446;2023-03-13T00:23:39;2.30;99.90
7163;DHT22;3623;47.098;15.446;2023-03-13T00:26:10;2.30;99.90
7163;DHT22;3623;47.098;15.446;2023-03-13T00:28:38;2.40;99.90
7163;DHT22;3623;47.098;15.446;2023-03-13T00:31:08;2.30;99.90
7163;DHT22;3623;47.098;15.446;2023-03-13T00:33:38;2.40;99.90
7163;DHT22;3623;47.098;15.446;2023-03-13T00:36:07;2.40;99.90
7163;DHT22;3623;47.098;15.446;2023-03-13T00:38:34;2.00;99.90
7163;DHT22;3623;47.098;15.446;2023-03-13T00:41:04;2.30;99.90
7163;DHT22;3623;47.098;15.446;2023-03-13T00:43:31;2.00;99.90
7163;DHT22;3623;47.098;15.446;2023-03-13T00:45:59;2.10;99.90
7163;DHT22;3623;47.098;15.446;2023-03-13T00:48:26;2.20;99.90
7163;DHT22;3623;47.098;15.446;2023-03-13T00:50:55;2.60;99.90
7163;DHT22;3623;47.098;15.446;2023-03-13T00:53:22;2.60;99.90
7163;DHT22;3623;47.098;15.446;2023-03-13T00:55:54;2.30;99.90
7163;DHT22;3623;47.098;15.446;2023-03-13T00:58:22;2.50;99.90
7163;DHT22;3623;47.098;15.446;2023-03-13T01:00:50;2.20;99.90
7163;DHT22;3623;47.098;15.446;2023-03-13T01:03:18;2.10;99.90
7163;DHT22;3623;47.098;15.446;2023-03-13T01:06:00;2.10;99.90
7163;DHT22;3623;47.098;15.446;2023-03-13T01:08:28;2.00;99.90
7163;DHT22;3623;47.098;15.446;2023-03-13T01:10:59;2.00;99.90
7163;DHT22;3623;47.098;15.446;2023-03-13T01:13:27;2.00;99.90
7163;DHT22;3623;47.098;15.446;2023-03-13T01:16:01;1.80;99.90
7163;DHT22;3623;47.098;15.446;2023-03-13T01:18:29;1.90;99.90
7163;DHT22;3623;47.098;15.446;2023-03-13T01:20:58;1.60;99.90
7163;DHT22;3623;47.098;15.446;2023-03-13T01:23:25;1.70;99.90
7163;DHT22;3623;47.098;15.446;2023-03-13T01:25:53;2.10;99.90
7163;DHT22;3623;47.098;15.446;2023-03-13T01:28:20;1.70;99.90
7163;DHT22;3623;47.098;15.446;2023-03-13T01:30:48;1.80;99.90
7163;DHT22;3623;47.098;15.446;2023-03-13T01:33:15;1.60;99.90
7163;DHT22;3623;47.098;15.446;2023-03-13T01:35:44;1.60;99.90
7163;DHT22;3623;47.098;15.446;2023-03-13T01:38:12;2.00;99.90
7163;DHT22;3623;47.098;15.446;2023-03-13T01:40:40;1.90;99.90
7163;DHT22;3623;47.098;15.446;2023-03-13T01:43:19;1.80;99.90
7163;DHT22;3623;47.098;15.446;2023-03-13T01:45:56;1.90;99.90
7163;DHT22;3623;47.098;15.446;2023-03-13T01:48:28;1.60;99.90
7163;DHT22;3623;47.098;15.446;2023-03-13T01:51:00;1.60;99.90
7163;DHT22;3623;47.098;15.446;2023-03-13T01:53:31;1.60;99.90
7163;DHT22;3623;47.098;15.446;2023-03-13T01:56:05;1.90;99.90
7163;DHT22;3623;47.098;15.446;2023-03-13T01:58:35;1.60;99.90
7163;DHT22;3623;47.098;15.446;2023-03-13T02:01:03;1.90;99.90
7163;DHT22;3623;47.098;15.446;2023-03-13T02:03:31;1.70;99.90
7163;DHT22;3623;47.098;15.446;2023-03-13T02:05:59;1.60;99.90
7163;DHT22;3623;47.098;15.446;2023-03-13T02:08:36;1.70;99.90
7163;DHT22;3623;47.098;15.446;2023-03-13T02:11:11;1.70;99.90
7163;DHT22;3623;47.098;15.446;2023-03-13T02:13:42;1.70;99.90
7163;DHT22;3623;47.098;15.446;2023-03-13T02:16:11;1.60;99.90
7163;DHT22;3623;47.098;15.446;2023-03-13T02:18:38;1.50;99.90
7163;DHT22;3623;47.098;15.446;2023-03-13T02:21:10;1.50;99.90
7163;DHT22;3623;47.098;15.446;2023-03-13T02:23:50;1.80;99.90
7163;DHT22;3623;47.098;15.446;2023-03-13T02:26:20;1.50;99.90
7163;DHT22;3623;47.098;15.446;2023-03-13T02:28:47;1.50;99.90
7163;DHT22;3623;47.098;15.446;2023-03-13T02:31:15;1.70;99.90
7163;DHT22;3623;47.098;15.446;2023-03-13T02:33:42;1.40;99.90
7163;DHT22;3623;47.098;15.446;2023-03-13T02:36:12;1.40;99.90
7163;DHT22;3623;47.098;15.446;2023-03-13T02:38:46;1.70;99.90
7163;DHT22;3623;47.098;15.446;2023-03-13T02:41:15;1.80;99.90
7163;DHT22;3623;47.098;15.446;2023-03-13T02:43:45;1.50;99.90
7163;DHT22;3623;47.098;15.446;2023-03-13T02:46:15;1.50;99.90
7163;DHT22;3623;47.098;15.446;2023-03-13T02:48:45;1.50;99.90
7163;DHT22;3623;47.098;15.446;2023-03-13T02:51:17;1.60;99.90
7163;DHT22;3623;47.098;15.446;2023-03-13T02:53:48;1.50;99.90
7163;DHT22;3623;47.098;15.446;2023-03-13T02:56:22;1.70;99.90
7163;DHT22;3623;47.098;15.446;2023-03-13T02:58:52;1.30;99.90
7163;DHT22;3623;47.098;15.446;2023-03-13T03:01:19;1.70;99.90
7163;DHT22;3623;47.098;15.446;2023-03-13T03:03:46;1.70;99.90
7163;DHT22;3623;47.098;15.446;2023-03-13T03:06:21;1.40;99.90
7163;DHT22;3623;47.098;15.446;2023-03-13T03:08:48;1.30;99.90
7163;DHT22;3623;47.098;15.446;2023-03-13T03:11:15;1.30;99.90
7163;DHT22;3623;47.098;15.446;2023-03-13T03:13:43;1.60;99.90
7163;DHT22;3623;47.098;15.446;2023-03-13T03:16:21;1.40;99.90
7163;DHT22;3623;47.098;15.446;2023-03-13T03:18:48;1.30;99.90
7163;DHT22;3623;47.098;15.446;2023-03-13T03:21:15;1.30;99.90
7163;DHT22;3623;47.098;15.446;2023-03-13T03:23:42;1.30;99.90
7163;DHT22;3623;47.098;15.446;2023-03-13T03:26:12;1.30;99.90
7163;DHT22;3623;47.098;15.446;2023-03-13T03:28:39;1.30;99.90
7163;DHT22;3623;47.098;15.446;2023-03-13T03:31:08;1.60;99.90
7163;DHT22;3623;47.098;15.446;2023-03-13T03:33:38;1.40;99.90
7163;DHT22;3623;47.098;15.446;2023-03-13T03:36:09;1.40;99.90
7163;DHT22;3623;47.098;15.446;2023-03-13T03:38:36;1.30;99.90
7163;DHT22;3623;47.098;15.446;2023-03-13T03:41:08;1.40;99.90
7163;DHT22;3623;47.098;15.446;2023-03-13T03:43:36;1.40;99.90
7163;DHT22;3623;47.098;15.446;2023-03-13T03:46:05;1.70;99.90
7163;DHT22;3623;47.098;15.446;2023-03-13T03:48:32;1.30;99.90
7163;DHT22;3623;47.098;15.446;2023-03-13T03:51:01;1.30;99.90
7163;DHT22;3623;47.098;15.446;2023-03-13T03:53:28;1.30;99.90
7163;DHT22;3623;47.098;15.446;2023-03-13T03:55:57;1.40;99.90
7163;DHT22;3623;47.098;15.446;2023-03-13T03:58:24;1.80;99.90
7163;DHT22;3623;47.098;15.446;2023-03-13T04:00:51;1.50;99.90
7163;DHT22;3623;47.098;15.446;2023-03-13T04:03:18;2.00;99.90
7163;DHT22;3623;47.098;15.446;2023-03-13T04:05:46;1.60;99.90
7163;DHT22;3623;47.098;15.446;2023-03-13T04:08:15;1.30;99.90
7163;DHT22;3623;47.098;15.446;2023-03-13T04:10:42;1.60;99.90
7163;DHT22;3623;47.098;15.446;2023-03-13T04:13:09;1.50;99.90
7163;DHT22;3623;47.098;15.446;2023-03-13T04:15:37;1.30;99.90
7163;DHT22;3623;47.098;15.446;2023-03-13T04:18:04;1.30;99.90
7163;DHT22;3623;47.098;15.446;2023-03-13T04:20:32;1.10;99.90
7163;DHT22;3623;47.098;15.446;2023-03-13T04:22:59;1.10;99.90
7163;DHT22;3623;47.098;15.446;2023-03-13T04:25:29;1.10;99.90
7163;DHT22;3623;47.098;15.446;2023-03-13T04:27:56;1.30;99.90
7163;DHT22;3623;47.098;15.446;2023-03-13T04:30:23;1.50;99.90
7163;DHT22;3623;47.098;15.446;2023-03-13T04:32:50;1.10;99.90
7163;DHT22;3623;47.098;15.446;2023-03-13T04:35:17;1.40;99.90
7163;DHT22;3623;47.098;15.446;2023-03-13T04:37:44;1.70;99.90
7163;DHT22;3623;47.098;15.446;2023-03-13T04:40:12;1.50;99.90
7163;DHT22;3623;47.098;15.446;2023-03-13T04:42:40;1.10;99.90
7163;DHT22;3623;47.098;15.446;2023-03-13T04:45:10;1.10;99.90
7163;DHT22;3623;47.098;15.446;2023-03-13T04:47:38;1.10;99.90
7163;DHT22;3623;47.098;15.446;2023-03-13T04:50:05;1.40;99.90
7163;DHT22;3623;47.098;15.446;2023-03-13T04:52:33;1.10;99.90
7163;DHT22;3623;47.098;15.446;2023-03-13T04:55:01;1.20;99.90
7163;DHT22;3623;47.098;15.446;2023-03-13T04:57:28;1.10;99.90
7163;DHT22;3623;47.098;15.446;2023-03-13T04:59:56;1.20;99.90
7163;DHT22;3623;47.098;15.446;2023-03-13T05:02:24;1.20;99.90
7163;DHT22;3623;47.098;15.446;2023-03-13T05:04:55;1.20;99.90
7163;DHT22;3623;47.098;15.446;2023-03-13T05:07:22;1.30;99.90
7163;DHT22;3623;47.098;15.446;2023-03-13T05:09:49;1.00;99.90
7163;DHT22;3623;47.098;15.446;2023-03-13T05:12:16;1.40;99.90
7163;DHT22;3623;47.098;15.446;2023-03-13T05:14:43;1.10;99.90
7163;DHT22;3623;47.098;15.446;2023-03-13T05:17:11;1.40;99.90
7163;DHT22;3623;47.098;15.446;2023-03-13T05:19:39;1.00;99.90
7163;DHT22;3623;47.098;15.446;2023-03-13T05:22:06;1.10;99.90
7163;DHT22;3623;47.098;15.446;2023-03-13T05:24:41;1.50;99.90
7163;DHT22;3623;47.098;15.446;2023-03-13T05:27:08;1.50;99.90
7163;DHT22;3623;47.098;15.446;2023-03-13T05:29:35;1.70;99.90
7163;DHT22;3623;47.098;15.446;2023-03-13T05:32:02;1.70;99.90
7163;DHT22;3623;47.098;15.446;2023-03-13T05:34:37;1.70;99.90
7163;DHT22;3623;47.098;15.446;2023-03-13T05:37:04;1.50;99.90
7163;DHT22;3623;47.098;15.446;2023-03-13T05:39:31;1.40;99.90
7163;DHT22;3623;47.098;15.446;2023-03-13T05:41:58;1.50;99.90
7163;DHT22;3623;47.098;15.446;2023-03-13T05:44:31;1.30;99.90
7163;DHT22;3623;47.098;15.446;2023-03-13T05:46:58;1.60;99.90
7163;DHT22;3623;47.098;15.446;2023-03-13T05:49:25;1.50;99.90
7163;DHT22;3623;47.098;15.446;2023-03-13T05:51:54;2.00;99.90
7163;DHT22;3623;47.098;15.446;2023-03-13T05:54:25;1.80;99.90
7163;DHT22;3623;47.098;15.446;2023-03-13T05:56:52;2.00;99.90
7163;DHT22;3623;47.098;15.446;2023-03-13T05:59:19;1.80;99.90
7163;DHT22;3623;47.098;15.446;2023-03-13T06:01:46;1.80;99.90
7163;DHT22;3623;47.098;15.446;2023-03-13T06:04:15;1.90;99.90
7163;DHT22;3623;47.098;15.446;2023-03-13T06:06:42;1.90;99.90
7163;DHT22;3623;47.098;15.446;2023-03-13T06:09:11;2.20;99.90
7163;DHT22;3623;47.098;15.446;2023-03-13T06:11:38;2.60;99.90
7163;DHT22;3623;47.098;15.446;2023-03-13T06:14:06;3.00;99.90
7163;DHT22;3623;47.098;15.446;2023-03-13T06:16:33;3.60;99.90
7163;DHT22;3623;47.098;15.446;2023-03-13T06:19:00;3.50;99.90
7163;DHT22;3623;47.098;15.446;2023-03-13T06:21:27;3.60;99.90
7163;DHT22;3623;47.098;15.446;2023-03-13T06:23:55;3.50;99.90
7163;DHT22;3623;47.098;15.446;2023-03-13T06:26:32;3.20;99.90
7163;DHT22;3623;47.098;15.446;2023-03-13T06:28:59;3.10;99.90
7163;DHT22;3623;47.098;15.446;2023-03-13T06:31:26;3.10;99.90
7163;DHT22;3623;47.098;15.446;2023-03-13T06:33:53;3.20;99.90
7163;DHT22;3623;47.098;15.446;2023-03-13T06:36:22;3.30;99.90
7163;DHT22;3623;47.098;15.446;2023-03-13T06:38:50;3.30;99.90
7163;DHT22;3623;47.098;15.446;2023-03-13T06:41:17;3.50;99.90
7163;DHT22;3623;47.098;15.446;2023-03-13T06:43:45;3.50;99.90
7163;DHT22;3623;47.098;15.446;2023-03-13T06:46:18;3.50;99.90
7163;DHT22;3623;47.098;15.446;2023-03-13T06:48:47;3.60;99.90
7163;DHT22;3623;47.098;15.446;2023-03-13T06:51:15;3.60;99.90
7163;DHT22;3623;47.098;15.446;2023-03-13T06:53:43;3.60;99.90
7163;DHT22;3623;47.098;15.446;2023-03-13T06:56:14;3.80;99.90
7163;DHT22;3623;47.098;15.446;2023-03-13T06:58:41;3.90;99.90
7163;DHT22;3623;47.098;15.446;2023-03-13T07:01:11;4.10;99.90
7163;DHT22;3623;47.098;15.446;2023-03-13T07:03:39;4.40;99.90
7163;DHT22;3623;47.098;15.446;2023-03-13T07:06:09;4.60;99.90
7163;DHT22;3623;47.098;15.446;2023-03-13T07:08:37;4.70;99.90
7163;DHT22;3623;47.098;15.446;2023-03-13T07:11:06;4.90;99.90
7163;DHT22;3623;47.098;15.446;2023-03-13T07:13:34;5.00;99.90
7163;DHT22;3623;47.098;15.446;2023-03-13T07:16:11;5.00;99.90
7163;DHT22;3623;47.098;15.446;2023-03-13T07:18:39;5.00;99.90
7163;DHT22;3623;47.098;15.446;2023-03-13T07:21:10;5.00;99.90
7163;DHT22;3623;47.098;15.446;2023-03-13T07:23:37;5.10;99.90
7163;DHT22;3623;47.098;15.446;2023-03-13T07:26:18;5.00;99.90
7163;DHT22;3623;47.098;15.446;2023-03-13T07:28:45;5.00;99.90
7163;DHT22;3623;47.098;15.446;2023-03-13T07:31:16;5.10;99.90
7163;DHT22;3623;47.098;15.446;2023-03-13T07:33:44;5.20;99.90
7163;DHT22;3623;47.098;15.446;2023-03-13T07:36:14;5.30;99.90
7163;DHT22;3623;47.098;15.446;2023-03-13T07:38:41;5.20;99.90
7163;DHT22;3623;47.098;15.446;2023-03-13T07:41:11;5.30;99.90
7163;DHT22;3623;47.098;15.446;2023-03-13T07:43:38;5.40;99.90
7163;DHT22;3623;47.098;15.446;2023-03-13T07:46:09;5.40;99.90
7163;DHT22;3623;47.098;15.446;2023-03-13T07:48:39;5.50;99.90
7163;DHT22;3623;47.098;15.446;2023-03-13T07:51:11;5.60;99.90
7163;DHT22;3623;47.098;15.446;2023-03-13T07:53:39;5.70;99.90
7163;DHT22;3623;47.098;15.446;2023-03-13T07:56:10;5.80;99.90
7163;DHT22;3623;47.098;15.446;2023-03-13T07:58:38;5.70;99.90
7163;DHT22;3623;47.098;15.446;2023-03-13T08:01:08;5.60;99.90
7163;DHT22;3623;47.098;15.446;2023-03-13T08:03:35;5.80;99.90
7163;DHT22;3623;47.098;15.446;2023-03-13T08:06:11;5.80;99.90
7163;DHT22;3623;47.098;15.446;2023-03-13T08:08:39;5.90;99.90
7163;DHT22;3623;47.098;15.446;2023-03-13T08:11:08;5.90;99.90
7163;DHT22;3623;47.098;15.446;2023-03-13T08:13:37;6.00;99.90
7163;DHT22;3623;47.098;15.446;2023-03-13T08:16:06;6.00;99.90
7163;DHT22;3623;47.098;15.446;2023-03-13T08:18:34;6.00;99.90
7163;DHT22;3623;47.098;15.446;2023-03-13T08:21:03;6.10;99.90
7163;DHT22;3623;47.098;15.446;2023-03-13T08:23:32;5.90;99.90
7163;DHT22;3623;47.098;15.446;2023-03-13T08:26:05;6.00;99.90
7163;DHT22;3623;47.098;15.446;2023-03-13T08:28:32;6.10;99.90
7163;DHT22;3623;47.098;15.446;2023-03-13T08:31:06;6.10;99.90
7163;DHT22;3623;47.098;15.446;2023-03-13T08:33:33;6.00;99.90
7163;DHT22;3623;47.098;15.446;2023-03-13T08:36:09;5.80;99.90
7163;DHT22;3623;47.098;15.446;2023-03-13T08:38:38;5.90;99.90
7163;DHT22;3623;47.098;15.446;2023-03-13T08:41:06;5.90;99.90
7163;DHT22;3623;47.098;15.446;2023-03-13T08:43:34;6.10;99.90
7163;DHT22;3623;47.098;15.446;2023-03-13T08:46:01;6.10;99.90
7163;DHT22;3623;47.098;15.446;2023-03-13T08:48:28;6.30;99.90
7163;DHT22;3623;47.098;15.446;2023-03-13T08:51:00;6.50;99.90
7163;DHT22;3623;47.098;15.446;2023-03-13T08:53:27;6.50;99.90
7163;DHT22;3623;47.098;15.446;2023-03-13T08:56:01;6.50;99.90
7163;DHT22;3623;47.098;15.446;2023-03-13T08:58:29;6.60;99.90
7163;DHT22;3623;47.098;15.446;2023-03-13T09:01:00;6.80;99.90
7163;DHT22;3623;47.098;15.446;2023-03-13T09:03:28;7.00;99.90
7163;DHT22;3623;47.098;15.446;2023-03-13T09:05:56;7.00;99.90
7163;DHT22;3623;47.098;15.446;2023-03-13T09:08:23;7.40;99.90
7163;DHT22;3623;47.098;15.446;2023-03-13T09:10:54;7.70;99.90
7163;DHT22;3623;47.098;15.446;2023-03-13T09:13:24;7.90;99.90
7163;DHT22;3623;47.098;15.446;2023-03-13T09:15:56;7.90;99.90
7163;DHT22;3623;47.098;15.446;2023-03-13T09:18:23;7.90;99.90
7163;DHT22;3623;47.098;15.446;2023-03-13T09:20:51;8.10;99.90
7163;DHT22;3623;47.098;15.446;2023-03-13T09:23:19;8.30;99.90
7163;DHT22;3623;47.098;15.446;2023-03-13T09:25:47;8.30;99.90
7163;DHT22;3623;47.098;15.446;2023-03-13T09:28:14;8.40;99.90
7163;DHT22;3623;47.098;15.446;2023-03-13T09:30:43;8.70;99.90
7163;DHT22;3623;47.098;15.446;2023-03-13T09:33:10;8.80;99.90
7163;DHT22;3623;47.098;15.446;2023-03-13T09:35:38;8.60;99.90
7163;DHT22;3623;47.098;15.446;2023-03-13T09:38:05;8.70;99.90
7163;DHT22;3623;47.098;15.446;2023-03-13T09:40:37;8.90;99.90
7163;DHT22;3623;47.098;15.446;2023-03-13T09:43:18;9.10;99.90
7163;DHT22;3623;47.098;15.446;2023-03-13T09:45:52;9.10;99.90
7163;DHT22;3623;47.098;15.446;2023-03-13T09:48:28;9.30;99.90
7163;DHT22;3623;47.098;15.446;2023-03-13T09:51:00;9.40;99.90
7163;DHT22;3623;47.098;15.446;2023-03-13T09:53:33;9.50;99.90
7163;DHT22;3623;47.098;15.446;2023-03-13T09:56:10;9.30;99.90
7163;DHT22;3623;47.098;15.446;2023-03-13T09:58:46;9.60;99.90
7163;DHT22;3623;47.098;15.446;2023-03-13T10:01:16;9.60;99.90
7163;DHT22;3623;47.098;15.446;2023-03-13T10:03:54;9.90;99.90
7163;DHT22;3623;47.098;15.446;2023-03-13T10:06:24;10.10;99.90
7163;DHT22;3623;47.098;15.446;2023-03-13T10:08:54;10.60;99.90
7163;DHT22;3623;47.098;15.446;2023-03-13T10:11:28;11.00;99.90
7163;DHT22;3623;47.098;15.446;2023-03-13T10:14:02;11.40;99.90
7163;DHT22;3623;47.098;15.446;2023-03-13T10:16:37;11.80;99.90
7163;DHT22;3623;47.098;15.446;2023-03-13T10:19:11;11.40;99.90
7163;DHT22;3623;47.098;15.446;2023-03-13T10:21:39;11.50;99.90
7163;DHT22;3623;47.098;15.446;2023-03-13T10:24:15;11.90;99.90
7163;DHT22;3623;47.098;15.446;2023-03-13T10:26:44;12.50;99.90
7163;DHT22;3623;47.098;15.446;2023-03-13T10:29:20;12.40;99.90
7163;DHT22;3623;47.098;15.446;2023-03-13T10:31:55;12.80;99.90
7163;DHT22;3623;47.098;15.446;2023-03-13T10:34:23;12.80;99.90
7163;DHT22;3623;47.098;15.446;2023-03-13T10:36:55;12.70;99.90
7163;DHT22;3623;47.098;15.446;2023-03-13T10:39:24;12.80;99.90
7163;DHT22;3623;47.098;15.446;2023-03-13T10:41:57;13.10;99.90
7163;DHT22;3623;47.098;15.446;2023-03-13T10:44:31;12.90;99.90
7163;DHT22;3623;47.098;15.446;2023-03-13T10:47:01;13.40;99.90
7163;DHT22;3623;47.098;15.446;2023-03-13T10:49:30;13.60;99.90
7163;DHT22;3623;47.098;15.446;2023-03-13T10:51:59;14.20;99.90
7163;DHT22;3623;47.098;15.446;2023-03-13T10:54:28;14.60;99.90
7163;DHT22;3623;47.098;15.446;2023-03-13T10:57:27;13.80;99.90
7163;DHT22;3623;47.098;15.446;2023-03-13T10:59:55;13.80;99.90
7163;DHT22;3623;47.098;15.446;2023-03-13T11:02:27;13.60;99.90
7163;DHT22;3623;47.098;15.446;2023-03-13T11:04:54;14.90;99.90
7163;DHT22;3623;47.098;15.446;2023-03-13T11:07:26;14.80;99.90
7163;DHT22;3623;47.098;15.446;2023-03-13T11:09:58;14.60;99.90
7163;DHT22;3623;47.098;15.446;2023-03-13T11:12:26;14.70;99.90
7163;DHT22;3623;47.098;15.446;2023-03-13T11:14:58;14.90;99.90
7163;DHT22;3623;47.098;15.446;2023-03-13T11:17:33;14.80;99.90
7163;DHT22;3623;47.098;15.446;2023-03-13T11:20:06;15.00;99.90
7163;DHT22;3623;47.098;15.446;2023-03-13T11:22:45;14.70;99.90
7163;DHT22;3623;47.098;15.446;2023-03-13T11:25:20;14.30;99.90
7163;DHT22;3623;47.098;15.446;2023-03-13T11:28:01;13.90;99.90
7163;DHT22;3623;47.098;15.446;2023-03-13T11:30:45;14.10;99.90
7163;DHT22;3623;47.098;15.446;2023-03-13T11:33:23;13.90;99.90
7163;DHT22;3623;47.098;15.446;2023-03-13T11:36:00;14.60;99.90
7163;DHT22;3623;47.098;15.446;2023-03-13T11:38:32;15.70;99.90
7163;DHT22;3623;47.098;15.446;2023-03-13T11:41:28;16.10;99.90
7163;DHT22;3623;47.098;15.446;2023-03-13T11:44:07;15.60;99.90
7163;DHT22;3623;47.098;15.446;2023-03-13T11:46:45;14.50;99.90
7163;DHT22;3623;47.098;15.446;2023-03-13T11:52:23;13.90;99.90
7163;DHT22;3623;47.098;15.446;2023-03-13T11:58:02;14.90;99.90
7163;DHT22;3623;47.098;15.446;2023-03-13T12:00:35;15.00;99.90
7163;DHT22;3623;47.098;15.446;2023-03-13T12:03:10;15.20;99.90
7163;DHT22;3623;47.098;15.446;2023-03-13T12:05:45;15.50;99.90
7163;DHT22;3623;47.098;15.446;2023-03-13T12:08:19;15.60;99.90
7163;DHT22;3623;47.098;15.446;2023-03-13T12:10:51;15.00;99.90
7163;DHT22;3623;47.098;15.446;2023-03-13T12:13:25;16.30;99.90
7163;DHT22;3623;47.098;15.446;2023-03-13T12:15:58;16.60;99.90
7163;DHT22;3623;47.098;15.446;2023-03-13T12:18:31;17.00;99.90
7163;DHT22;3623;47.098;15.446;2023-03-13T12:21:06;16.20;99.90
7163;DHT22;3623;47.098;15.446;2023-03-13T12:23:42;16.30;99.60
7163;DHT22;3623;47.098;15.446;2023-03-13T12:26:14;15.90;99.90
7163;DHT22;3623;47.098;15.446;2023-03-13T12:28:46;15.60;99.90
7163;DHT22;3623;47.098;15.446;2023-03-13T12:31:21;15.80;99.90
7163;DHT22;3623;47.098;15.446;2023-03-13T12:33:55;16.60;99.90
7163;DHT22;3623;47.098;15.446;2023-03-13T12:36:29;17.80;99.90
7163;DHT22;3623;47.098;15.446;2023-03-13T12:39:08;18.40;99.90
7163;DHT22;3623;47.098;15.446;2023-03-13T12:41:39;18.40;99.40
7163;DHT22;3623;47.098;15.446;2023-03-13T12:44:11;18.30;99.20
7163;DHT22;3623;47.098;15.446;2023-03-13T12:46:45;18.60;99.50
7163;DHT22;3623;47.098;15.446;2023-03-13T12:52:33;17.10;99.90
7163;DHT22;3623;47.098;15.446;2023-03-13T12:58:12;15.70;99.90
7163;DHT22;3623;47.098;15.446;2023-03-13T13:00:43;15.20;99.90
7163;DHT22;3623;47.098;15.446;2023-03-13T13:03:22;15.60;99.90
7163;DHT22;3623;47.098;15.446;2023-03-13T13:05:58;16.90;99.90
7163;DHT22;3623;47.098;15.446;2023-03-13T13:08:32;18.00;99.90
7163;DHT22;3623;47.098;15.446;2023-03-13T13:20:38;21.10;98.70
7163;DHT22;3623;47.098;15.446;2023-03-13T13:23:31;20.60;98.80
7163;DHT22;3623;47.098;15.446;2023-03-13T13:32:36;20.80;96.50
7163;DHT22;3623;47.098;15.446;2023-03-13T13:35:17;19.70;97.10
7163;DHT22;3623;47.098;15.446;2023-03-13T13:37:46;19.10;98.00
7163;DHT22;3623;47.098;15.446;2023-03-13T13:40:21;18.60;98.10
7163;DHT22;3623;47.098;15.446;2023-03-13T13:42:51;18.30;97.40
7163;DHT22;3623;47.098;15.446;2023-03-13T13:45:28;17.80;97.90
7163;DHT22;3623;47.098;15.446;2023-03-13T13:48:23;17.00;97.40
7163;DHT22;3623;47.098;15.446;2023-03-13T13:54:01;16.70;98.60
7163;DHT22;3623;47.098;15.446;2023-03-13T13:56:40;16.20;98.90
7163;DHT22;3623;47.098;15.446;2023-03-13T13:59:30;16.10;98.80
7163;DHT22;3623;47.098;15.446;2023-03-13T14:04:58;15.70;98.60
7163;DHT22;3623;47.098;15.446;2023-03-13T14:07:36;15.30;98.60
7163;DHT22;3623;47.098;15.446;2023-03-13T14:10:18;15.20;99.90
7163;DHT22;3623;47.098;15.446;2023-03-13T14:12:51;14.80;99.00
7163;DHT22;3623;47.098;15.446;2023-03-13T14:15:21;14.80;99.80
7163;DHT22;3623;47.098;15.446;2023-03-13T14:17:51;14.90;99.90
7163;DHT22;3623;47.098;15.446;2023-03-13T14:20:25;14.80;99.30
7163;DHT22;3623;47.098;15.446;2023-03-13T14:22:54;14.90;99.80
7163;DHT22;3623;47.098;15.446;2023-03-13T14:25:22;15.00;99.90
7163;DHT22;3623;47.098;15.446;2023-03-13T14:27:51;15.00;99.30
7163;DHT22;3623;47.098;15.446;2023-03-13T14:30:20;14.90;99.30
7163;DHT22;3623;47.098;15.446;2023-03-13T14:32:50;14.90;99.80
7163;DHT22;3623;47.098;15.446;2023-03-13T14:35:18;14.80;99.70
7163;DHT22;3623;47.098;15.446;2023-03-13T14:37:48;14.70;99.90
7163;DHT22;3623;47.098;15.446;2023-03-13T14:40:36;14.60;99.90
7163;DHT22;3623;47.098;15.446;2023-03-13T14:43:18;14.70;99.90
7163;DHT22;3623;47.098;15.446;2023-03-13T14:45:48;14.60;99.90
7163;DHT22;3623;47.098;15.446;2023-03-13T14:48:19;14.70;99.90
7163;DHT22;3623;47.098;15.446;2023-03-13T14:50:48;14.80;99.90
7163;DHT22;3623;47.098;15.446;2023-03-13T14:53:17;14.60;99.90
7163;DHT22;3623;47.098;15.446;2023-03-13T14:55:45;14.60;99.90
7163;DHT22;3623;47.098;15.446;2023-03-13T14:58:28;14.50;99.90
7163;DHT22;3623;47.098;15.446;2023-03-13T15:00:56;14.50;99.90
7163;DHT22;3623;47.098;15.446;2023-03-13T15:03:29;14.70;99.90
7163;DHT22;3623;47.098;15.446;2023-03-13T15:06:15;14.80;99.90
7163;DHT22;3623;47.098;15.446;2023-03-13T15:08:44;15.00;99.90
7163;DHT22;3623;47.098;15.446;2023-03-13T15:11:25;15.10;99.90
7163;DHT22;3623;47.098;15.446;2023-03-13T15:13:55;15.20;99.90
7163;DHT22;3623;47.098;15.446;2023-03-13T15:16:25;15.40;99.90
7163;DHT22;3623;47.098;15.446;2023-03-13T15:18:53;15.40;99.90
7163;DHT22;3623;47.098;15.446;2023-03-13T15:21:32;15.50;99.90
7163;DHT22;3623;47.098;15.446;2023-03-13T15:24:01;15.60;99.90
7163;DHT22;3623;47.098;15.446;2023-03-13T15:26:29;15.70;99.90
7163;DHT22;3623;47.098;15.446;2023-03-13T15:28:57;15.50;99.90
7163;DHT22;3623;47.098;15.446;2023-03-13T15:31:27;15.40;99.90
7163;DHT22;3623;47.098;15.446;2023-03-13T15:33:56;15.10;99.90
7163;DHT22;3623;47.098;15.446;2023-03-13T15:36:27;15.10;99.90
7163;DHT22;3623;47.098;15.446;2023-03-13T15:38:54;15.00;99.90
7163;DHT22;3623;47.098;15.446;2023-03-13T15:41:22;14.80;99.90
7163;DHT22;3623;47.098;15.446;2023-03-13T15:43:49;14.60;99.90
7163;DHT22;3623;47.098;15.446;2023-03-13T15:46:23;14.60;99.90
7163;DHT22;3623;47.098;15.446;2023-03-13T15:48:51;14.60;99.90
7163;DHT22;3623;47.098;15.446;2023-03-13T15:51:18;14.70;99.90
7163;DHT22;3623;47.098;15.446;2023-03-13T15:53:46;14.70;99.90
7163;DHT22;3623;47.098;15.446;2023-03-13T15:56:15;14.80;99.90
7163;DHT22;3623;47.098;15.446;2023-03-13T15:58:44;14.90;99.90
7163;DHT22;3623;47.098;15.446;2023-03-13T16:01:12;14.80;99.90
7163;DHT22;3623;47.098;15.446;2023-03-13T16:03:41;14.60;99.90
7163;DHT22;3623;47.098;15.446;2023-03-13T16:06:15;14.50;99.90
7163;DHT22;3623;47.098;15.446;2023-03-13T16:08:42;14.50;99.90
7163;DHT22;3623;47.098;15.446;2023-03-13T16:11:12;14.40;99.90
7163;DHT22;3623;47.098;15.446;2023-03-13T16:13:39;14.30;99.90
7163;DHT22;3623;47.098;15.446;2023-03-13T16:16:18;14.30;99.90
7163;DHT22;3623;47.098;15.446;2023-03-13T16:18:48;14.10;99.90
7163;DHT22;3623;47.098;15.446;2023-03-13T16:21:18;14.00;99.90
7163;DHT22;3623;47.098;15.446;2023-03-13T16:23:46;13.80;99.90
7163;DHT22;3623;47.098;15.446;2023-03-13T16:26:16;13.70;99.90
7163;DHT22;3623;47.098;15.446;2023-03-13T16:28:44;13.50;99.90
7163;DHT22;3623;47.098;15.446;2023-03-13T16:31:17;13.40;99.90
7163;DHT22;3623;47.098;15.446;2023-03-13T16:33:45;13.30;99.90
7163;DHT22;3623;47.098;15.446;2023-03-13T16:36:15;13.20;99.90
7163;DHT22;3623;47.098;15.446;2023-03-13T16:38:43;13.10;99.90
7163;DHT22;3623;47.098;15.446;2023-03-13T16:41:14;13.10;99.90
7163;DHT22;3623;47.098;15.446;2023-03-13T16:43:42;13.00;99.90
7163;DHT22;3623;47.098;15.446;2023-03-13T16:46:14;13.00;99.90
7163;DHT22;3623;47.098;15.446;2023-03-13T16:48:41;12.90;99.90
7163;DHT22;3623;47.098;15.446;2023-03-13T16:51:17;12.80;99.90